Impacts TAF Board
For situational awareness. Not to be used for flight planning purposes.
IDs:

KTPA - Tampa Intl Arpt, FL, US

Issued at 2129 UTC 21 May 2022
Updated at 2313 UTC 21 May 2022
Potential Impact None Slight Moderate High
Time2253Z 22/00Z 22/01Z 22/02Z 22/03Z 22/04Z 22/05Z 22/06Z 22/07Z 22/08Z 22/09Z 22/10Z 22/11Z 22/12Z>>
Type OBS PRVL PRVL PRVL PRVL PRVL PRVL PRVL PRVL PRVL PRVL PRVL PRVL PRVL
VIS 8 >6 >6 >6 >6 >6 >6 >6 >6 >6 >6 >6 >6 >6
CIG 48 250 250 250 250 100 100 100 100 100 100 100 100 100
Cover OVC BKN BKN BKN BKN BKN BKN BKN BKN BKN BKN BKN BKN BKN
FltCat VFR VFR VFR VFR VFR VFR VFR VFR VFR VFR VFR VFR VFR VFR
WX -- VCSH VCSH VCSH VCSH -- -- -- -- -- -- -- -- --
WDir 290 VRB VRB VRB VRB 120 120 120 120 120 120 120 120 120
WSpd 18 6 6 6 6 8 8 8 8 8 8 8 8 8
WGst 26 -- -- -- -- -- -- -- -- -- -- -- -- --
WSHgt -- -- -- -- -- -- -- -- -- -- -- -- -- --
WSDir -- -- -- -- -- -- -- -- -- -- -- -- -- --
WSSpd -- -- -- -- -- -- -- -- -- -- -- -- -- --
R01/19
XWnd 17 VRB VRB VRB VRB -7 -7 -7 -7 -7 -7 -7 -7 -7
XGst 25 -- -- -- -- -- -- -- -- -- -- -- -- --
R10/28
XWnd 6 VRB VRB VRB VRB -4 -4 -4 -4 -4 -4 -4 -4 -4
XGst 8 -- -- -- -- -- -- -- -- -- -- -- -- --
Raw TAF
KTPA 212129Z 2121/2224 24010KT P6SM VCSH SCT025 BKN250
  FM220000 VRB06KT P6SM VCSH SCT030 BKN250
  FM220400 12008KT P6SM FEW020 BKN100
  FM221500 16009KT P6SM SCT030 BKN100
  PROB30 2220/2223 3SM TSRA BKN025CB BKN250


Raw METAR
KTPA 212253Z 29018G26KT 8SM SCT028 BKN048 OVC210 30/24 A3013 RMK AO2 PK WND 29026/2253 LTG DSNT N AND SE SLP201 T03000239
KTPA 212153Z 27006KT 9SM FEW046 OVC210 31/23 A3012 RMK AO2 SLP199 T03110233
KTPA 212053Z 28006KT 8SM SCT043 OVC250 31/24 A3011 RMK AO2 SLP196 T03060244 56019

METAR Board
Radar Display
Forecast Discussion
For situational awareness. Not to be used for flight planning purposes.